Time;durP1;ratioP1;P1;durP2;ratioP2;P2;SDS_P1;SDS_P2;PMS_P1;PMS_P2;Temp;Humidity;BMP_temperature;BMP_pressure;BME280_temperature;BME280_humidity;BME280_pressure;Samples;Min_cycle;Max_cycle;Signal;HPM_P1;HPM_P2
2022/09/18 00:02:01;;;;;;;0.20;0.20;;;10.00;99.90;;;;;;5061836;28;20642;-81
2022/09/18 00:04:27;;;;;;;0.20;0.20;;;10.00;99.90;;;;;;5061971;28;20193;-80
2022/09/18 00:06:52;;;;;;;0.20;0.20;;;10.00;99.90;;;;;;5062536;28;20488;-79
2022/09/18 00:09:18;;;;;;;0.20;0.20;;;9.90;99.90;;;;;;5060864;28;20182;-79
2022/09/18 00:11:46;;;;;;;0.20;0.20;;;10.00;99.90;;;;;;5063317;28;20186;-80
2022/09/18 00:14:19;;;;;;;0.30;0.30;;;9.90;99.90;;;;;;5060394;28;20595;-81
2022/09/18 00:16:45;;;;;;;0.20;0.20;;;9.90;99.90;;;;;;5062092;28;20484;-79
2022/09/18 00:19:11;;;;;;;0.20;0.20;;;9.90;99.90;;;;;;5061987;28;20436;-80
2022/09/18 00:21:40;;;;;;;0.20;0.20;;;9.90;99.90;;;;;;5060724;28;21022;-80
2022/09/18 00:24:06;;;;;;;0.20;0.20;;;9.90;99.90;;;;;;5069516;28;20186;-80
2022/09/18 00:26:32;;;;;;;0.20;0.20;;;9.90;99.90;;;;;;5063808;28;20480;-80
2022/09/18 00:28:58;;;;;;;0.20;0.20;;;10.00;99.90;;;;;;5063067;28;20534;-80
2022/09/18 00:31:29;;;;;;;0.20;0.20;;;10.00;99.90;;;;;;5060264;28;20448;-81
2022/09/18 00:33:56;;;;;;;0.20;0.20;;;10.00;99.90;;;;;;5059172;28;20221;-80
2022/09/18 00:36:22;;;;;;;0.20;0.20;;;10.00;99.90;;;;;;5055234;28;20441;-80
2022/09/18 00:38:48;;;;;;;0.20;0.20;;;10.00;99.90;;;;;;5056348;28;20459;-80
2022/09/18 00:41:23;;;;;;;0.20;0.20;;;10.00;99.90;;;;;;5067488;28;20440;-79
2022/09/18 00:43:55;;;;;;;0.20;0.20;;;10.00;99.90;;;;;;5060272;28;21010;-80
2022/09/18 00:46:27;;;;;;;0.20;0.20;;;10.00;99.90;;;;;;5060025;28;20476;-80
2022/09/18 00:49:12;;;;;;;0.20;0.20;;;10.00;99.90;;;;;;5075103;28;20564;-80
2022/09/18 00:51:39;;;;;;;0.20;0.20;;;10.00;99.90;;;;;;5065507;28;20532;-80
2022/09/18 00:54:18;;;;;;;0.20;0.20;;;10.00;99.90;;;;;;5065659;28;21076;-79
2022/09/18 00:56:44;;;;;;;0.20;0.20;;;10.00;99.90;;;;;;5062170;28;20461;-79
2022/09/18 00:59:12;;;;;;;0.20;0.20;;;10.00;99.90;;;;;;5073957;28;20436;-79
2022/09/18 01:01:38;;;;;;;0.20;0.20;;;10.00;99.90;;;;;;5063663;28;20471;-79
2022/09/18 01:04:09;;;;;;;0.20;0.20;;;10.00;99.90;;;;;;5064009;28;20960;-80
2022/09/18 01:06:41;;;;;;;0.20;0.20;;;10.00;99.90;;;;;;5063377;28;20222;-79
2022/09/18 01:09:15;;;;;;;0.20;0.20;;;10.10;99.90;;;;;;5062944;28;20452;-79
2022/09/18 01:11:50;;;;;;;0.20;0.20;;;10.00;99.90;;;;;;5068002;28;20573;-80
2022/09/18 01:14:40;;;;;;;0.20;0.20;;;10.00;99.90;;;;;;5074030;28;20443;-79
2022/09/18 01:17:35;;;;;;;0.20;0.20;;;10.00;99.90;;;;;;5061698;28;20436;-81
2022/09/18 01:20:28;;;;;;;0.20;0.20;;;9.90;99.90;;;;;;5006223;28;20981;-80
2022/09/18 01:23:16;;;;;;;0.20;0.20;;;9.90;99.90;;;;;;5061479;28;20440;-79
2022/09/18 01:26:00;;;;;;;0.20;0.20;;;9.90;99.90;;;;;;5068536;28;20810;-80
2022/09/18 01:28:37;;;;;;;0.20;0.20;;;9.90;99.90;;;;;;5061706;28;20513;-79
2022/09/18 01:31:08;;;;;;;0.20;0.20;;;10.00;99.90;;;;;;5058888;28;20435;-79
2022/09/18 01:33:56;;;;;;;0.20;0.20;;;10.00;99.90;;;;;;5058827;28;20606;-80
2022/09/18 01:36:25;;;;;;;0.20;0.20;;;10.00;99.90;;;;;;5060527;28;20447;-79
2022/09/18 01:38:59;;;;;;;0.20;0.20;;;9.90;99.90;;;;;;5060201;28;20800;-80
2022/09/18 01:41:27;;;;;;;0.20;0.20;;;9.90;99.90;;;;;;5064505;28;20437;-80
2022/09/18 01:44:06;;;;;;;0.20;0.20;;;9.80;99.90;;;;;;5060866;28;20456;-80
2022/09/18 01:46:33;;;;;;;0.20;0.20;;;9.80;99.90;;;;;;5056856;28;20571;-80
2022/09/18 01:49:09;;;;;;;0.20;0.20;;;9.80;99.90;;;;;;5058694;28;20440;-80
2022/09/18 01:51:40;;;;;;;0.20;0.20;;;9.80;99.90;;;;;;5067239;28;20549;-80
2022/09/18 01:54:12;;;;;;;0.20;0.20;;;9.80;99.90;;;;;;5059041;28;20851;-79
2022/09/18 01:56:45;;;;;;;0.20;0.20;;;9.80;99.90;;;;;;5062035;28;20959;-79
2022/09/18 01:59:16;;;;;;;0.20;0.20;;;9.80;99.90;;;;;;5061857;28;20436;-79
2022/09/18 02:01:43;;;;;;;0.20;0.20;;;9.70;99.90;;;;;;5057390;28;20793;-79
2022/09/18 02:04:13;;;;;;;0.20;0.20;;;9.70;99.90;;;;;;5062193;28;20436;-79
2022/09/18 02:06:46;;;;;;;0.20;0.20;;;9.70;99.90;;;;;;5060771;28;20483;-79
2022/09/18 02:09:12;;;;;;;0.20;0.20;;;9.70;99.90;;;;;;5059380;28;20436;-79
2022/09/18 02:11:43;;;;;;;0.20;0.20;;;9.70;99.90;;;;;;5060268;28;20452;-79
2022/09/18 02:14:17;;;;;;;0.20;0.20;;;9.60;99.90;;;;;;5059599;28;20509;-79
2022/09/18 02:16:47;;;;;;;0.20;0.20;;;9.60;99.90;;;;;;5058695;28;20526;-78
2022/09/18 02:19:35;;;;;;;0.20;0.20;;;9.60;99.90;;;;;;5057570;28;21082;-79
2022/09/18 02:22:06;;;;;;;0.20;0.20;;;9.70;99.90;;;;;;5067424;28;20448;-79
2022/09/18 02:24:35;;;;;;;0.20;0.20;;;9.70;99.90;;;;;;5061101;28;20432;-78
2022/09/18 02:27:03;;;;;;;0.20;0.20;;;9.70;99.90;;;;;;5059231;28;21057;-78
2022/09/18 02:29:30;;;;;;;0.20;0.20;;;9.70;99.90;;;;;;5066467;28;20480;-78
2022/09/18 02:31:58;;;;;;;0.20;0.20;;;9.70;99.90;;;;;;5063780;28;20459;-79
2022/09/18 02:34:25;;;;;;;0.20;0.20;;;9.80;99.90;;;;;;5060191;28;20495;-79
2022/09/18 02:37:24;;;;;;;0.20;0.20;;;9.70;99.90;;;;;;5058810;28;20576;-79
2022/09/18 02:40:16;;;;;;;0.20;0.20;;;9.80;99.90;;;;;;5063326;28;21016;-79
2022/09/18 02:42:50;;;;;;;0.20;0.20;;;9.70;99.90;;;;;;5058618;28;20440;-78
2022/09/18 02:45:29;;;;;;;0.20;0.20;;;9.80;99.90;;;;;;5056174;28;20518;-78
2022/09/18 02:48:18;;;;;;;0.20;0.20;;;9.80;99.90;;;;;;5063480;28;20456;-79
2022/09/18 02:50:58;;;;;;;0.20;0.20;;;9.70;99.90;;;;;;5059136;28;20448;-79
2022/09/18 02:53:50;;;;;;;0.20;0.20;;;9.80;99.90;;;;;;5061048;28;20642;-78
2022/09/18 02:56:43;;;;;;;0.20;0.20;;;9.80;99.90;;;;;;5063610;28;20956;-79
2022/09/18 02:59:20;;;;;;;0.20;0.20;;;9.80;99.90;;;;;;5066259;28;20444;-79
2022/09/18 03:01:46;;;;;;;0.20;0.20;;;9.80;99.90;;;;;;5054663;28;21019;-79
2022/09/18 03:04:14;;;;;;;0.20;0.20;;;9.80;99.90;;;;;;5060439;28;20467;-79
2022/09/18 03:06:40;;;;;;;0.20;0.20;;;9.70;99.90;;;;;;5064767;28;20483;-79
2022/09/18 03:09:06;;;;;;;0.20;0.20;;;9.70;99.90;;;;;;5058437;28;20489;-79
2022/09/18 03:11:32;;;;;;;0.20;0.20;;;9.70;99.90;;;;;;5064474;28;20243;-78
2022/09/18 03:13:57;;;;;;;0.20;0.20;;;9.70;99.90;;;;;;5060233;28;20189;-79
2022/09/18 03:16:23;;;;;;;0.20;0.20;;;9.70;99.90;;;;;;5064411;28;20190;-79
2022/09/18 03:18:48;;;;;;;0.20;0.20;;;9.70;99.90;;;;;;5062074;28;20182;-78
2022/09/18 03:21:14;;;;;;;0.20;0.20;;;9.70;99.90;;;;;;5059106;28;20228;-78
2022/09/18 03:23:39;;;;;;;0.20;0.20;;;9.70;99.90;;;;;;5062435;28;20193;-78
2022/09/18 03:26:05;;;;;;;0.20;0.20;;;9.70;99.90;;;;;;5058411;28;20232;-79
2022/09/18 03:28:31;;;;;;;0.20;0.20;;;9.70;99.90;;;;;;5060531;28;20194;-79
2022/09/18 03:30:56;;;;;;;0.20;0.20;;;9.70;99.90;;;;;;5058501;28;20190;-79
2022/09/18 03:33:22;;;;;;;0.20;0.20;;;9.70;99.90;;;;;;5059663;28;20892;-79
2022/09/18 03:35:47;;;;;;;0.20;0.20;;;9.70;99.90;;;;;;5057889;28;20286;-80
2022/09/18 03:38:13;;;;;;;0.20;0.20;;;9.70;99.90;;;;;;5059003;28;20836;-79
2022/09/18 03:40:43;;;;;;;0.20;0.20;;;9.70;99.90;;;;;;5058532;28;20198;-79
2022/09/18 03:43:08;;;;;;;0.20;0.20;;;9.70;99.90;;;;;;5056306;28;20284;-79
2022/09/18 03:45:33;;;;;;;0.20;0.20;;;9.60;99.90;;;;;;5059107;28;20447;-79
2022/09/18 03:47:59;;;;;;;0.20;0.20;;;9.70;99.90;;;;;;5073461;28;20677;-79
2022/09/18 03:50:25;;;;;;;0.30;0.30;;;9.60;99.90;;;;;;5064603;28;20235;-79
2022/09/18 03:52:50;;;;;;;0.20;0.20;;;9.60;99.90;;;;;;5065492;28;20190;-79
2022/09/18 03:55:19;;;;;;;0.20;0.20;;;9.60;99.90;;;;;;5060697;28;20186;-79
2022/09/18 03:57:45;;;;;;;0.20;0.20;;;9.60;99.90;;;;;;5068386;28;20653;-79
2022/09/18 04:00:12;;;;;;;0.20;0.20;;;9.50;99.90;;;;;;5063329;28;20518;-79
2022/09/18 04:02:38;;;;;;;0.20;0.20;;;9.50;99.90;;;;;;5064351;28;20448;-80
2022/09/18 04:05:04;;;;;;;0.23;0.23;;;9.50;99.90;;;;;;5071796;28;20760;-79
2022/09/18 04:07:29;;;;;;;0.20;0.20;;;9.50;99.90;;;;;;5062295;28;20225;-79
2022/09/18 04:09:55;;;;;;;0.20;0.20;;;9.50;99.90;;;;;;5060596;28;20435;-79
2022/09/18 04:12:21;;;;;;;0.20;0.20;;;9.50;99.90;;;;;;5062274;28;20260;-79
2022/09/18 04:14:47;;;;;;;0.20;0.20;;;9.60;99.90;;;;;;5061079;28;21006;-80
2022/09/18 04:17:12;;;;;;;0.20;0.20;;;9.60;99.90;;;;;;5061640;28;20539;-79
2022/09/18 04:19:38;;;;;;;0.20;0.20;;;9.50;99.90;;;;;;5061558;28;20214;-79
2022/09/18 04:22:03;;;;;;;0.20;0.20;;;9.50;99.90;;;;;;5062614;28;20270;-79
2022/09/18 04:24:29;;;;;;;0.20;0.20;;;9.50;99.90;;;;;;5062678;28;20208;-79
2022/09/18 04:26:54;;;;;;;0.20;0.20;;;9.50;99.90;;;;;;5061992;28;20577;-78
2022/09/18 04:29:20;;;;;;;0.20;0.20;;;9.50;99.90;;;;;;5068551;28;20676;-79
2022/09/18 04:31:46;;;;;;;0.20;0.20;;;9.50;99.90;;;;;;5065253;28;20193;-79
2022/09/18 04:34:11;;;;;;;0.20;0.20;;;9.50;99.90;;;;;;5058748;28;20479;-78
2022/09/18 04:36:37;;;;;;;0.20;0.20;;;9.60;99.90;;;;;;5065842;28;20732;-79
2022/09/18 04:39:03;;;;;;;0.20;0.20;;;9.60;99.90;;;;;;5063564;28;20245;-79
2022/09/18 04:41:28;;;;;;;0.20;0.20;;;9.60;99.90;;;;;;5059346;28;20186;-79
2022/09/18 04:43:54;;;;;;;0.20;0.20;;;9.50;99.90;;;;;;5064629;28;20469;-79
2022/09/18 04:46:19;;;;;;;0.20;0.20;;;9.60;99.90;;;;;;5068867;28;20609;-79
2022/09/18 04:48:47;;;;;;;0.20;0.20;;;9.60;99.90;;;;;;5069158;28;20277;-79
2022/09/18 04:51:14;;;;;;;0.20;0.20;;;9.50;99.90;;;;;;5069853;28;20190;-79
2022/09/18 04:53:39;;;;;;;0.20;0.20;;;9.50;99.90;;;;;;5071953;28;20502;-79
2022/09/18 04:56:05;;;;;;;0.20;0.20;;;9.50;99.90;;;;;;5070008;28;20425;-78
2022/09/18 04:58:31;;;;;;;0.20;0.20;;;9.50;99.90;;;;;;5068710;28;20473;-79
2022/09/18 05:00:56;;;;;;;0.30;0.30;;;9.50;99.90;;;;;;5061862;28;20186;-79
2022/09/18 05:03:22;;;;;;;0.20;0.20;;;9.50;99.90;;;;;;5060312;28;20197;-76
2022/09/18 05:05:48;;;;;;;0.20;0.20;;;9.50;99.90;;;;;;5060402;28;20651;-80
2022/09/18 05:08:14;;;;;;;0.20;0.20;;;9.40;99.90;;;;;;5057390;28;20565;-79
2022/09/18 05:10:41;;;;;;;0.20;0.20;;;9.50;99.90;;;;;;5059272;28;20444;-80
2022/09/18 05:13:06;;;;;;;0.20;0.20;;;9.50;99.90;;;;;;5061196;28;20190;-79
2022/09/18 05:15:32;;;;;;;0.20;0.20;;;9.50;99.90;;;;;;5060075;28;20451;-79
2022/09/18 05:18:02;;;;;;;0.20;0.20;;;9.60;99.90;;;;;;5065552;28;20186;-80
2022/09/18 05:20:29;;;;;;;0.20;0.20;;;9.50;99.90;;;;;;5068532;28;20235;-79
2022/09/18 05:22:55;;;;;;;0.20;0.20;;;9.50;99.90;;;;;;5066525;28;20453;-79
2022/09/18 05:25:22;;;;;;;0.20;0.20;;;9.50;99.90;;;;;;5058322;28;20448;-76
2022/09/18 05:27:58;;;;;;;0.30;0.30;;;9.50;99.90;;;;;;5059596;28;20966;-79
2022/09/18 05:30:24;;;;;;;0.20;0.20;;;9.50;99.90;;;;;;5060166;28;21197;-76
2022/09/18 05:32:56;;;;;;;0.20;0.20;;;9.50;99.90;;;;;;5064980;28;20447;-77
2022/09/18 05:35:24;;;;;;;0.20;0.20;;;9.60;99.90;;;;;;5064001;28;20455;-80
2022/09/18 05:37:50;;;;;;;0.20;0.20;;;9.70;99.90;;;;;;5060962;28;20523;-80
2022/09/18 05:40:16;;;;;;;0.20;0.20;;;9.70;99.90;;;;;;5063379;28;20443;-80
2022/09/18 05:42:49;;;;;;;0.20;0.20;;;9.60;99.90;;;;;;5060814;28;20965;-79
2022/09/18 05:45:15;;;;;;;0.20;0.20;;;9.60;99.90;;;;;;5058684;28;20305;-80
2022/09/18 05:47:41;;;;;;;0.20;0.20;;;9.40;99.90;;;;;;5059966;28;20533;-79
2022/09/18 05:50:08;;;;;;;0.20;0.20;;;9.50;99.90;;;;;;5061723;28;20432;-79
2022/09/18 05:52:34;;;;;;;0.20;0.20;;;9.40;99.90;;;;;;5066131;28;21066;-79
2022/09/18 05:54:59;;;;;;;0.20;0.20;;;9.40;99.90;;;;;;5063069;28;20448;-79
2022/09/18 05:57:25;;;;;;;0.20;0.20;;;9.50;99.90;;;;;;5063834;28;20185;-78
2022/09/18 05:59:50;;;;;;;0.20;0.20;;;9.40;99.90;;;;;;5066521;28;20584;-80
2022/09/18 06:02:16;;;;;;;0.20;0.20;;;9.40;99.90;;;;;;5068197;28;20200;-77
2022/09/18 06:04:42;;;;;;;0.20;0.20;;;9.40;99.90;;;;;;5057820;28;20243;-78
2022/09/18 06:07:07;;;;;;;0.20;0.20;;;9.40;99.90;;;;;;5067344;28;20883;-78
2022/09/18 06:09:33;;;;;;;0.20;0.20;;;9.40;99.90;;;;;;5062573;28;20192;-78
2022/09/18 06:11:58;;;;;;;0.20;0.20;;;9.50;99.90;;;;;;5065187;28;20557;-80
2022/09/18 06:14:24;;;;;;;0.20;0.20;;;9.50;99.90;;;;;;5057153;28;20271;-81
2022/09/18 06:16:50;;;;;;;0.20;0.20;;;9.50;99.90;;;;;;5058920;28;20190;-77
2022/09/18 06:19:15;;;;;;;0.20;0.20;;;9.60;99.90;;;;;;5061045;28;20181;-80
2022/09/18 06:21:41;;;;;;;0.20;0.20;;;9.70;99.90;;;;;;5060625;28;20208;-81
2022/09/18 06:24:08;;;;;;;0.20;0.20;;;9.80;99.90;;;;;;5063160;28;20174;-81
2022/09/18 06:26:34;;;;;;;0.20;0.20;;;9.80;99.90;;;;;;5058174;28;20210;-80
2022/09/18 06:28:59;;;;;;;0.20;0.20;;;9.70;99.90;;;;;;5064579;28;20523;-79
2022/09/18 06:31:25;;;;;;;0.20;0.20;;;9.70;99.90;;;;;;5065377;28;20562;-79
2022/09/18 06:33:50;;;;;;;0.20;0.20;;;9.70;99.90;;;;;;5056842;28;20231;-79
2022/09/18 06:36:16;;;;;;;0.20;0.20;;;9.70;99.90;;;;;;5057761;28;20625;-80
2022/09/18 06:38:42;;;;;;;0.20;0.20;;;9.70;99.90;;;;;;5059641;28;20261;-79
2022/09/18 06:41:07;;;;;;;0.20;0.20;;;9.70;99.90;;;;;;5059060;28;20588;-79
2022/09/18 06:43:34;;;;;;;0.20;0.20;;;9.90;99.90;;;;;;5058964;28;20591;-80
2022/09/18 06:45:59;;;;;;;0.20;0.20;;;9.90;99.90;;;;;;5055317;28;20209;-80
2022/09/18 06:48:28;;;;;;;0.20;0.20;;;9.90;99.90;;;;;;5055861;28;20636;-80
2022/09/18 06:50:55;;;;;;;0.20;0.20;;;10.00;99.90;;;;;;5063519;28;20195;-80
2022/09/18 06:53:22;;;;;;;0.20;0.20;;;10.10;99.90;;;;;;5061308;28;20443;-81
2022/09/18 06:55:47;;;;;;;0.20;0.20;;;10.20;99.90;;;;;;5063563;28;20444;-80
2022/09/18 06:58:15;;;;;;;0.20;0.20;;;10.30;99.90;;;;;;5065806;28;20448;-80
2022/09/18 07:00:41;;;;;;;0.20;0.20;;;10.30;99.90;;;;;;5058066;28;20281;-80
2022/09/18 07:03:08;;;;;;;0.20;0.20;;;10.40;99.90;;;;;;5061668;28;20567;-80
2022/09/18 07:05:33;;;;;;;0.20;0.20;;;10.60;99.90;;;;;;5069411;28;20977;-79
2022/09/18 07:07:59;;;;;;;0.20;0.20;;;10.70;99.90;;;;;;5060873;28;20637;-79
2022/09/18 07:10:25;;;;;;;0.20;0.20;;;10.90;99.90;;;;;;5055944;28;20273;-79
2022/09/18 07:12:58;;;;;;;0.20;0.20;;;11.10;99.90;;;;;;5059551;28;20261;-79
2022/09/18 07:15:25;;;;;;;0.20;0.20;;;11.10;99.90;;;;;;5059789;28;20428;-78
2022/09/18 07:17:51;;;;;;;0.20;0.20;;;11.10;99.90;;;;;;5060204;28;20814;-79
2022/09/18 07:20:20;;;;;;;0.20;0.20;;;11.10;99.90;;;;;;5065103;28;20439;-79
2022/09/18 07:22:55;;;;;;;0.20;0.20;;;11.20;99.90;;;;;;5070262;28;20470;-79
2022/09/18 07:25:21;;;;;;;0.20;0.20;;;11.20;99.90;;;;;;5068913;28;20504;-79
2022/09/18 07:27:47;;;;;;;0.20;0.20;;;10.90;99.90;;;;;;5065248;28;21266;-79
2022/09/18 07:30:13;;;;;;;0.20;0.20;;;10.90;99.90;;;;;;5065599;28;20436;-79
2022/09/18 07:32:39;;;;;;;0.10;0.10;;;10.90;99.90;;;;;;5065200;28;20822;-79
2022/09/18 07:35:05;;;;;;;0.20;0.20;;;11.20;99.90;;;;;;5071091;28;20768;-79
2022/09/18 07:37:32;;;;;;;0.20;0.20;;;11.30;99.90;;;;;;5063472;28;20190;-79
2022/09/18 07:39:58;;;;;;;0.20;0.20;;;11.40;99.90;;;;;;5070256;28;20198;-79
2022/09/18 07:42:23;;;;;;;0.20;0.20;;;11.40;99.90;;;;;;5070339;28;20440;-78
2022/09/18 07:44:49;;;;;;;0.20;0.20;;;11.60;99.90;;;;;;5073036;28;20186;-79
2022/09/18 07:47:14;;;;;;;0.10;0.10;;;11.70;99.90;;;;;;5070906;28;20217;-79
2022/09/18 07:49:40;;;;;;;0.13;0.13;;;11.70;99.90;;;;;;5068930;28;20200;-80
2022/09/18 07:52:06;;;;;;;0.10;0.10;;;11.70;99.90;;;;;;5070961;28;20715;-80
2022/09/18 07:54:31;;;;;;;0.20;0.20;;;11.90;99.90;;;;;;5068205;28;20595;-80
2022/09/18 07:56:57;;;;;;;0.20;0.20;;;12.20;99.90;;;;;;5066756;28;20440;-79
2022/09/18 07:59:22;;;;;;;0.10;0.10;;;12.20;99.90;;;;;;5064654;28;20622;-78
2022/09/18 08:01:48;;;;;;;0.20;0.20;;;12.10;99.90;;;;;;5068517;28;20235;-77
2022/09/18 08:04:13;;;;;;;0.10;0.10;;;12.10;99.90;;;;;;5069470;28;20182;-79
2022/09/18 08:06:39;;;;;;;0.10;0.10;;;11.90;99.90;;;;;;5069202;28;20920;-83
2022/09/18 08:09:04;;;;;;;0.20;0.20;;;11.60;99.90;;;;;;5070133;28;20185;-83
2022/09/18 08:11:30;;;;;;;0.10;0.10;;;12.10;99.90;;;;;;5071493;28;20635;-84
2022/09/18 08:13:56;;;;;;;0.10;0.10;;;12.00;99.90;;;;;;5070790;28;20653;-82
2022/09/18 08:16:24;;;;;;;0.10;0.10;;;12.10;99.90;;;;;;5067197;28;20498;-82
2022/09/18 08:18:50;;;;;;;0.10;0.10;;;12.10;99.90;;;;;;5068347;28;20189;-84
2022/09/18 08:21:17;;;;;;;0.10;0.10;;;12.30;99.90;;;;;;5072199;28;20451;-85
2022/09/18 08:23:42;;;;;;;0.10;0.10;;;12.30;99.90;;;;;;5070051;28;20186;-84
2022/09/18 08:26:08;;;;;;;0.10;0.10;;;12.50;99.90;;;;;;5068705;28;20482;-83
2022/09/18 08:28:34;;;;;;;0.10;0.10;;;12.80;99.90;;;;;;5083287;28;20186;-84
2022/09/18 08:30:59;;;;;;;0.20;0.20;;;12.80;99.90;;;;;;5068844;28;20223;-84
2022/09/18 08:33:25;;;;;;;0.10;0.10;;;13.00;99.90;;;;;;5067884;28;20225;-83
2022/09/18 08:35:50;;;;;;;0.10;0.10;;;13.00;99.90;;;;;;5075360;28;20178;-84
2022/09/18 08:38:16;;;;;;;0.10;0.10;;;12.80;99.90;;;;;;5064989;28;20192;-83
2022/09/18 08:40:56;;;;;;;0.10;0.10;;;13.00;99.90;;;;;;5071378;28;20190;-82
2022/09/18 08:43:52;;;;;;;0.10;0.10;;;13.00;99.90;;;;;;5069648;28;20190;-81
2022/09/18 08:46:39;;;;;;;0.10;0.10;;;13.00;99.90;;;;;;5063107;28;20472;-81
2022/09/18 08:49:23;;;;;;;0.10;0.10;;;13.20;99.90;;;;;;5066740;28;20847;-81
2022/09/18 08:51:55;;;;;;;0.10;0.10;;;13.60;99.90;;;;;;5061674;28;20805;-80
2022/09/18 08:54:32;;;;;;;0.10;0.10;;;13.80;99.90;;;;;;5069140;28;20464;-82
2022/09/18 08:57:05;;;;;;;0.10;0.10;;;13.40;99.90;;;;;;5070786;28;20582;-81
2022/09/18 08:59:38;;;;;;;0.10;0.10;;;12.80;99.90;;;;;;5069672;28;20470;-80
2022/09/18 09:02:16;;;;;;;0.10;0.10;;;12.40;99.90;;;;;;5066822;28;20432;-82
2022/09/18 09:04:42;;;;;;;0.10;0.10;;;12.20;99.90;;;;;;5051776;28;20913;-81
2022/09/18 09:07:32;;;;;;;0.10;0.10;;;12.00;99.90;;;;;;5059812;28;20521;-81
2022/09/18 09:10:02;;;;;;;0.10;0.10;;;11.90;99.90;;;;;;5067518;28;20428;-81
2022/09/18 09:12:41;;;;;;;0.10;0.10;;;11.90;99.90;;;;;;5069281;28;20452;-81
2022/09/18 09:15:19;;;;;;;0.10;0.10;;;11.90;99.90;;;;;;5066653;28;21022;-82
2022/09/18 09:18:10;;;;;;;0.10;0.10;;;12.00;99.90;;;;;;5065984;28;20447;-83
2022/09/18 09:20:52;;;;;;;0.20;0.20;;;12.20;99.90;;;;;;5067764;28;20473;-81
2022/09/18 09:23:39;;;;;;;0.10;0.10;;;12.80;99.90;;;;;;5068571;28;20501;-81
2022/09/18 09:26:11;;;;;;;0.10;0.10;;;13.30;99.90;;;;;;5067383;28;20468;-82
2022/09/18 09:28:52;;;;;;;0.10;0.10;;;13.50;99.90;;;;;;5065355;28;20459;-82
2022/09/18 09:31:24;;;;;;;0.10;0.10;;;13.20;99.90;;;;;;5065441;28;20438;-81
2022/09/18 09:33:59;;;;;;;0.10;0.10;;;12.90;99.90;;;;;;5069399;28;20566;-82
2022/09/18 09:36:29;;;;;;;0.10;0.10;;;12.60;99.90;;;;;;5061560;28;20436;-82
2022/09/18 09:39:14;;;;;;;0.10;0.10;;;12.70;99.90;;;;;;5062303;28;20528;-82
2022/09/18 09:41:44;;;;;;;0.10;0.10;;;12.70;99.90;;;;;;5059184;28;20440;-82
2022/09/18 09:44:29;;;;;;;0.10;0.10;;;12.40;99.90;;;;;;5068115;28;20437;-82
2022/09/18 09:47:32;;;;;;;0.10;0.10;;;12.30;99.90;;;;;;5069775;28;21104;-82
2022/09/18 09:50:34;;;;;;;0.10;0.10;;;12.90;99.90;;;;;;5058621;28;20535;-81
2022/09/18 09:53:07;;;;;;;0.10;0.10;;;12.90;99.90;;;;;;5067137;28;20473;-82
2022/09/18 09:55:53;;;;;;;0.10;0.10;;;13.60;99.90;;;;;;5064436;28;20470;-83
2022/09/18 09:58:28;;;;;;;0.10;0.10;;;14.20;99.90;;;;;;5063216;28;20567;-83
2022/09/18 10:01:03;;;;;;;0.10;0.10;;;14.20;99.90;;;;;;5067616;28;20443;-83
2022/09/18 10:03:59;;;;;;;0.10;0.10;;;14.50;99.90;;;;;;5083454;28;20526;-83
2022/09/18 10:06:48;;;;;;;0.10;0.10;;;14.90;99.90;;;;;;5061614;28;20567;-85
2022/09/18 10:09:32;;;;;;;0.10;0.10;;;15.50;99.90;;;;;;5067288;28;20523;-82
2022/09/18 10:12:17;;;;;;;0.10;0.10;;;15.40;99.90;;;;;;5062437;28;20435;-82
2022/09/18 10:14:47;;;;;;;0.10;0.10;;;14.40;99.90;;;;;;5087253;28;20535;-82
2022/09/18 10:17:16;;;;;;;0.10;0.10;;;13.30;99.90;;;;;;5068877;28;20428;-82
2022/09/18 10:19:42;;;;;;;0.10;0.10;;;13.20;99.90;;;;;;5057906;28;21018;-80
2022/09/18 10:22:14;;;;;;;0.10;0.10;;;13.30;99.90;;;;;;5081137;28;22093;-81
2022/09/18 10:24:47;;;;;;;0.10;0.10;;;13.80;99.90;;;;;;5056592;28;20451;-81
2022/09/18 10:27:13;;;;;;;0.10;0.10;;;14.60;99.90;;;;;;5066995;28;20492;-84
2022/09/18 10:29:40;;;;;;;0.10;0.10;;;15.20;99.90;;;;;;5068732;28;20485;-85
2022/09/18 10:32:06;;;;;;;0.10;0.10;;;15.00;99.90;;;;;;5065433;28;20452;-82
2022/09/18 10:34:32;;;;;;;0.10;0.10;;;15.80;99.90;;;;;;5067467;28;20480;-83
2022/09/18 10:36:58;;;;;;;0.10;0.10;;;15.60;99.90;;;;;;5067536;28;20516;-81
2022/09/18 10:39:31;;;;;;;0.10;0.10;;;15.60;99.90;;;;;;5061952;28;20196;-84
2022/09/18 10:42:15;;;;;;;0.10;0.10;;;16.90;99.90;;;;;;5058843;28;20451;-83
2022/09/18 10:44:46;;;;;;;0.10;0.10;;;17.30;99.90;;;;;;5068379;28;20466;-82
2022/09/18 10:47:15;;;;;;;0.10;0.10;;;17.30;99.90;;;;;;5065177;28;20562;-83
2022/09/18 10:50:01;;;;;;;0.10;0.10;;;17.60;99.90;;;;;;5063010;28;20464;-83
2022/09/18 10:52:39;;;;;;;0.10;0.10;;;17.40;99.90;;;;;;5065172;28;20452;-82
2022/09/18 10:55:05;;;;;;;0.10;0.10;;;17.00;99.90;;;;;;5066135;28;20478;-83
2022/09/18 10:57:33;;;;;;;0.10;0.10;;;17.50;99.90;;;;;;5064516;28;20475;-84
2022/09/18 10:59:59;;;;;;;0.10;0.10;;;18.00;99.90;;;;;;5060012;28;20198;-84
2022/09/18 11:02:28;;;;;;;0.10;0.10;;;16.90;99.90;;;;;;5064071;28;20448;-83
2022/09/18 11:04:54;;;;;;;0.10;0.10;;;16.00;99.90;;;;;;5057116;28;20448;-84
2022/09/18 11:07:23;;;;;;;0.10;0.10;;;16.30;99.90;;;;;;5067302;28;20941;-85
2022/09/18 11:09:49;;;;;;;0.10;0.10;;;16.10;99.90;;;;;;5067819;28;21033;-84
2022/09/18 11:12:20;;;;;;;0.10;0.10;;;15.40;99.90;;;;;;5088161;28;20433;-83
2022/09/18 11:14:50;;;;;;;0.10;0.10;;;15.40;99.90;;;;;;5063990;28;20442;-85
2022/09/18 11:17:32;;;;;;;0.10;0.10;;;16.30;99.90;;;;;;5063258;28;20531;-85
2022/09/18 11:19:59;;;;;;;0.10;0.10;;;16.20;99.90;;;;;;5065644;28;20545;-82
2022/09/18 11:22:43;;;;;;;0.10;0.10;;;15.30;99.90;;;;;;5066963;28;20955;-86
2022/09/18 11:25:35;;;;;;;0.10;0.10;;;14.70;99.90;;;;;;5068681;28;20448;-87
2022/09/18 11:28:00;;;;;;;0.10;0.10;;;14.00;99.90;;;;;;5068138;28;20579;-84
2022/09/18 11:30:28;;;;;;;0.10;0.10;;;13.70;99.90;;;;;;5068400;28;20440;-83
2022/09/18 11:33:24;;;;;;;0.10;0.10;;;13.40;99.90;;;;;;5066414;28;20706;-83
2022/09/18 11:35:56;;;;;;;0.10;0.10;;;13.20;99.90;;;;;;5067355;28;20501;-82
2022/09/18 11:38:22;;;;;;;0.10;0.10;;;13.70;99.90;;;;;;5083440;28;20463;-85
2022/09/18 11:40:52;;;;;;;0.10;0.10;;;14.10;99.90;;;;;;5069798;28;20967;-85
2022/09/18 11:43:27;;;;;;;0.10;0.10;;;14.20;99.90;;;;;;5068087;28;20186;-81
2022/09/18 11:46:02;;;;;;;0.10;0.10;;;14.70;99.90;;;;;;5059555;28;20445;-86
2022/09/18 11:48:40;;;;;;;0.10;0.10;;;14.20;99.90;;;;;;5066675;28;20489;-83
2022/09/18 11:51:25;;;;;;;0.10;0.10;;;14.90;99.90;;;;;;5069625;28;20799;-90
2022/09/18 11:54:00;;;;;;;0.10;0.10;;;16.40;99.90;;;;;;5066445;28;20451;-87
2022/09/18 11:56:49;;;;;;;0.10;0.10;;;16.80;99.90;;;;;;5068282;28;20435;-86
2022/09/18 11:59:40;;;;;;;0.10;0.10;;;17.80;99.90;;;;;;5063988;28;20531;-85
2022/09/18 12:02:38;;;;;;;0.10;0.10;;;18.50;99.90;;;;;;5068545;28;20463;-84
2022/09/18 12:05:32;;;;;;;0.10;0.00;;;19.20;99.90;;;;;;5069398;28;20444;-85
2022/09/18 12:08:24;;;;;;;0.10;0.00;;;19.00;99.90;;;;;;5070982;28;20518;-86
2022/09/18 12:11:16;;;;;;;0.10;0.00;;;18.60;99.90;;;;;;5063072;28;20436;-84
2022/09/18 12:13:58;;;;;;;0.10;0.00;;;18.60;99.90;;;;;;5068987;28;20960;-85
2022/09/18 12:16:34;;;;;;;0.10;0.00;;;18.20;99.90;;;;;;5067094;28;20444;-83
2022/09/18 12:19:02;;;;;;;0.10;0.00;;;18.70;99.90;;;;;;5058983;28;20440;-85
2022/09/18 12:21:58;;;;;;;0.10;0.00;;;18.30;99.90;;;;;;5066839;28;20506;-83
2022/09/18 12:24:24;;;;;;;0.10;0.00;;;20.00;99.90;;;;;;5067927;28;20463;-85
2022/09/18 12:27:01;;;;;;;0.10;0.00;;;19.90;99.90;;;;;;5068974;28;20490;-84
2022/09/18 12:30:11;;;;;;;0.10;0.00;;;20.70;99.90;;;;;;5069848;28;20455;-84
2022/09/18 12:32:56;;;;;;;0.10;0.00;;;18.20;99.90;;;;;;5054490;28;20447;-84
2022/09/18 12:36:08;;;;;;;0.10;0.00;;;19.20;99.90;;;;;;5069701;28;20490;-87
2022/09/18 12:38:43;;;;;;;0.10;0.00;;;19.60;99.90;;;;;;5058887;28;20445;-84
2022/09/18 12:41:46;;;;;;;0.10;0.00;;;19.90;99.90;;;;;;5070133;28;20506;-83
2022/09/18 12:44:35;;;;;;;0.10;0.00;;;20.30;99.90;;;;;;5051247;28;20450;-83
2022/09/18 12:47:24;;;;;;;0.10;0.00;;;20.60;99.90;;;;;;5066463;28;20499;-85
2022/09/18 12:50:14;;;;;;;0.10;0.00;;;20.90;99.90;;;;;;5067896;28;20444;-85
2022/09/18 12:52:57;;;;;;;0.10;0.00;;;20.90;99.90;;;;;;5062813;28;20966;-82
2022/09/18 12:55:51;;;;;;;0.10;0.00;;;20.70;99.90;;;;;;5063890;28;22258;-82
2022/09/18 12:59:02;;;;;;;0.10;0.00;;;20.30;99.90;;;;;;5064265;28;20449;-83
2022/09/18 13:01:35;;;;;;;0.10;0.00;;;21.00;99.90;;;;;;5059863;28;21051;-83
2022/09/18 13:04:31;;;;;;;0.10;0.00;;;20.50;99.90;;;;;;5067159;28;20470;-84
2022/09/18 13:07:14;;;;;;;0.10;0.00;;;21.10;99.90;;;;;;5063752;28;20987;-84
2022/09/18 13:09:55;;;;;;;0.10;0.00;;;20.30;99.90;;;;;;5064421;28;20553;-83
2022/09/18 13:12:35;;;;;;;0.10;0.00;;;20.40;99.90;;;;;;5063072;28;20474;-84
2022/09/18 13:15:15;;;;;;;0.10;0.00;;;20.70;99.90;;;;;;5064856;28;20575;-85
2022/09/18 13:17:46;;;;;;;0.10;0.00;;;20.70;99.90;;;;;;5082130;28;20841;-84